sensor_id;sensor_type;location;lat;lon;timestamp;P1;durP1;ratioP1;P2;durP2;ratioP2
5704;SDS011;2877;48.238;11.160;2023-04-05T00:01:12;6.10;;;4.50;;
5704;SDS011;2877;48.238;11.160;2023-04-05T00:03:38;5.57;;;4.70;;
5704;SDS011;2877;48.238;11.160;2023-04-05T00:06:04;5.77;;;4.87;;
5704;SDS011;2877;48.238;11.160;2023-04-05T00:08:31;5.13;;;4.57;;
5704;SDS011;2877;48.238;11.160;2023-04-05T00:10:57;6.63;;;5.30;;
5704;SDS011;2877;48.238;11.160;2023-04-05T00:13:23;5.83;;;4.30;;
5704;SDS011;2877;48.238;11.160;2023-04-05T00:15:49;9.17;;;5.57;;
5704;SDS011;2877;48.238;11.160;2023-04-05T00:18:15;8.20;;;5.00;;
5704;SDS011;2877;48.238;11.160;2023-04-05T00:20:48;6.30;;;4.90;;
5704;SDS011;2877;48.238;11.160;2023-04-05T00:23:14;7.67;;;5.00;;
5704;SDS011;2877;48.238;11.160;2023-04-05T00:25:41;6.23;;;4.50;;
5704;SDS011;2877;48.238;11.160;2023-04-05T00:28:07;5.80;;;4.90;;
5704;SDS011;2877;48.238;11.160;2023-04-05T00:30:33;8.60;;;4.80;;
5704;SDS011;2877;48.238;11.160;2023-04-05T00:32:59;6.60;;;5.47;;
5704;SDS011;2877;48.238;11.160;2023-04-05T00:35:27;5.77;;;4.80;;
5704;SDS011;2877;48.238;11.160;2023-04-05T00:37:54;7.43;;;5.20;;
5704;SDS011;2877;48.238;11.160;2023-04-05T00:40:20;5.93;;;4.90;;
5704;SDS011;2877;48.238;11.160;2023-04-05T00:42:45;6.00;;;4.90;;
5704;SDS011;2877;48.238;11.160;2023-04-05T00:45:11;6.40;;;4.80;;
5704;SDS011;2877;48.238;11.160;2023-04-05T00:47:37;8.10;;;5.40;;
5704;SDS011;2877;48.238;11.160;2023-04-05T00:50:05;7.33;;;5.60;;
5704;SDS011;2877;48.238;11.160;2023-04-05T00:52:31;8.33;;;5.10;;
5704;SDS011;2877;48.238;11.160;2023-04-05T00:54:57;7.27;;;4.90;;
5704;SDS011;2877;48.238;11.160;2023-04-05T00:57:23;8.00;;;5.10;;
5704;SDS011;2877;48.238;11.160;2023-04-05T00:59:50;7.03;;;5.20;;
5704;SDS011;2877;48.238;11.160;2023-04-05T01:02:30;6.93;;;4.97;;
5704;SDS011;2877;48.238;11.160;2023-04-05T01:04:58;7.90;;;5.53;;
5704;SDS011;2877;48.238;11.160;2023-04-05T01:07:39;9.80;;;5.23;;
5704;SDS011;2877;48.238;11.160;2023-04-05T01:10:12;6.57;;;4.97;;
5704;SDS011;2877;48.238;11.160;2023-04-05T01:12:40;5.73;;;4.70;;
5704;SDS011;2877;48.238;11.160;2023-04-05T01:15:07;5.20;;;4.50;;
5704;SDS011;2877;48.238;11.160;2023-04-05T01:17:33;5.87;;;5.20;;
5704;SDS011;2877;48.238;11.160;2023-04-05T01:20:06;8.13;;;5.57;;
5704;SDS011;2877;48.238;11.160;2023-04-05T01:22:45;4.87;;;4.30;;
5704;SDS011;2877;48.238;11.160;2023-04-05T01:28:43;5.97;;;4.93;;
5704;SDS011;2877;48.238;11.160;2023-04-05T01:36:44;7.80;;;4.80;;
5704;SDS011;2877;48.238;11.160;2023-04-05T01:39:19;8.83;;;5.40;;
5704;SDS011;2877;48.238;11.160;2023-04-05T01:41:46;5.80;;;4.97;;
5704;SDS011;2877;48.238;11.160;2023-04-05T01:44:11;6.10;;;5.50;;
5704;SDS011;2877;48.238;11.160;2023-04-05T01:46:37;7.57;;;4.83;;
5704;SDS011;2877;48.238;11.160;2023-04-05T01:49:03;6.93;;;5.30;;
5704;SDS011;2877;48.238;11.160;2023-04-05T01:51:29;6.63;;;4.60;;
5704;SDS011;2877;48.238;11.160;2023-04-05T01:53:55;5.63;;;5.00;;
5704;SDS011;2877;48.238;11.160;2023-04-05T01:56:21;6.57;;;5.10;;
5704;SDS011;2877;48.238;11.160;2023-04-05T01:58:46;7.00;;;4.77;;
5704;SDS011;2877;48.238;11.160;2023-04-05T02:01:12;7.30;;;4.93;;
5704;SDS011;2877;48.238;11.160;2023-04-05T02:03:37;6.77;;;5.43;;
5704;SDS011;2877;48.238;11.160;2023-04-05T02:06:03;6.83;;;4.90;;
5704;SDS011;2877;48.238;11.160;2023-04-05T02:08:29;7.23;;;5.40;;
5704;SDS011;2877;48.238;11.160;2023-04-05T02:10:55;5.27;;;4.77;;
5704;SDS011;2877;48.238;11.160;2023-04-05T02:13:20;9.17;;;5.30;;
5704;SDS011;2877;48.238;11.160;2023-04-05T02:15:47;6.40;;;4.77;;
5704;SDS011;2877;48.238;11.160;2023-04-05T02:18:14;5.10;;;4.53;;
5704;SDS011;2877;48.238;11.160;2023-04-05T02:20:40;6.40;;;4.80;;
5704;SDS011;2877;48.238;11.160;2023-04-05T02:23:05;4.90;;;4.40;;
5704;SDS011;2877;48.238;11.160;2023-04-05T02:25:32;5.27;;;4.70;;
5704;SDS011;2877;48.238;11.160;2023-04-05T02:27:57;6.23;;;4.80;;
5704;SDS011;2877;48.238;11.160;2023-04-05T02:30:23;5.97;;;4.73;;
5704;SDS011;2877;48.238;11.160;2023-04-05T02:32:48;7.10;;;4.70;;
5704;SDS011;2877;48.238;11.160;2023-04-05T02:35:14;6.60;;;4.60;;
5704;SDS011;2877;48.238;11.160;2023-04-05T02:37:41;6.30;;;5.10;;
5704;SDS011;2877;48.238;11.160;2023-04-05T02:40:07;5.73;;;4.80;;
5704;SDS011;2877;48.238;11.160;2023-04-05T02:42:36;9.20;;;5.10;;
5704;SDS011;2877;48.238;11.160;2023-04-05T02:45:01;7.93;;;5.67;;
5704;SDS011;2877;48.238;11.160;2023-04-05T02:47:27;6.20;;;5.53;;
5704;SDS011;2877;48.238;11.160;2023-04-05T02:49:52;9.47;;;5.17;;
5704;SDS011;2877;48.238;11.160;2023-04-05T02:52:18;10.57;;;6.97;;
5704;SDS011;2877;48.238;11.160;2023-04-05T02:54:43;8.23;;;5.93;;
5704;SDS011;2877;48.238;11.160;2023-04-05T02:57:10;11.80;;;8.37;;
5704;SDS011;2877;48.238;11.160;2023-04-05T02:59:37;9.53;;;7.03;;
5704;SDS011;2877;48.238;11.160;2023-04-05T03:02:04;13.77;;;7.07;;
5704;SDS011;2877;48.238;11.160;2023-04-05T03:04:30;9.60;;;5.83;;
5704;SDS011;2877;48.238;11.160;2023-04-05T03:06:58;6.83;;;4.97;;
5704;SDS011;2877;48.238;11.160;2023-04-05T03:09:26;9.13;;;5.70;;
5704;SDS011;2877;48.238;11.160;2023-04-05T03:11:57;5.73;;;4.83;;
5704;SDS011;2877;48.238;11.160;2023-04-05T03:14:27;7.53;;;6.23;;
5704;SDS011;2877;48.238;11.160;2023-04-05T03:16:53;6.73;;;5.60;;
5704;SDS011;2877;48.238;11.160;2023-04-05T03:19:19;6.63;;;5.60;;
5704;SDS011;2877;48.238;11.160;2023-04-05T03:21:46;7.57;;;5.60;;
5704;SDS011;2877;48.238;11.160;2023-04-05T03:24:13;9.90;;;5.90;;
5704;SDS011;2877;48.238;11.160;2023-04-05T03:26:38;5.90;;;5.30;;
5704;SDS011;2877;48.238;11.160;2023-04-05T03:29:04;7.00;;;5.30;;
5704;SDS011;2877;48.238;11.160;2023-04-05T03:31:30;6.70;;;5.43;;
5704;SDS011;2877;48.238;11.160;2023-04-05T03:33:56;7.07;;;5.43;;
5704;SDS011;2877;48.238;11.160;2023-04-05T03:36:21;9.80;;;5.10;;
5704;SDS011;2877;48.238;11.160;2023-04-05T03:38:47;5.97;;;4.90;;
5704;SDS011;2877;48.238;11.160;2023-04-05T03:41:14;7.47;;;5.37;;
5704;SDS011;2877;48.238;11.160;2023-04-05T03:43:40;8.43;;;5.87;;
5704;SDS011;2877;48.238;11.160;2023-04-05T03:46:05;6.43;;;5.20;;
5704;SDS011;2877;48.238;11.160;2023-04-05T03:48:31;7.60;;;4.60;;
5704;SDS011;2877;48.238;11.160;2023-04-05T03:50:57;6.33;;;5.10;;
5704;SDS011;2877;48.238;11.160;2023-04-05T03:53:22;6.47;;;5.20;;
5704;SDS011;2877;48.238;11.160;2023-04-05T03:55:48;5.33;;;4.80;;
5704;SDS011;2877;48.238;11.160;2023-04-05T03:58:14;8.63;;;4.77;;
5704;SDS011;2877;48.238;11.160;2023-04-05T04:00:40;8.50;;;4.53;;
5704;SDS011;2877;48.238;11.160;2023-04-05T04:03:06;5.70;;;4.67;;
5704;SDS011;2877;48.238;11.160;2023-04-05T04:05:33;7.00;;;4.93;;
5704;SDS011;2877;48.238;11.160;2023-04-05T04:08:03;6.00;;;4.43;;
5704;SDS011;2877;48.238;11.160;2023-04-05T04:10:29;4.60;;;4.20;;
5704;SDS011;2877;48.238;11.160;2023-04-05T04:12:55;5.30;;;4.80;;
5704;SDS011;2877;48.238;11.160;2023-04-05T04:15:20;4.97;;;4.47;;
5704;SDS011;2877;48.238;11.160;2023-04-05T04:17:46;10.63;;;4.50;;
5704;SDS011;2877;48.238;11.160;2023-04-05T04:20:11;7.10;;;5.20;;
5704;SDS011;2877;48.238;11.160;2023-04-05T04:22:38;5.57;;;4.30;;
5704;SDS011;2877;48.238;11.160;2023-04-05T04:25:05;5.33;;;4.03;;
5704;SDS011;2877;48.238;11.160;2023-04-05T04:27:36;5.57;;;4.37;;
5704;SDS011;2877;48.238;11.160;2023-04-05T04:30:04;6.80;;;5.20;;
5704;SDS011;2877;48.238;11.160;2023-04-05T04:32:34;5.07;;;4.20;;
5704;SDS011;2877;48.238;11.160;2023-04-05T04:35:19;5.73;;;4.30;;
5704;SDS011;2877;48.238;11.160;2023-04-05T04:40:23;5.20;;;4.43;;
5704;SDS011;2877;48.238;11.160;2023-04-05T04:43:09;9.97;;;4.83;;
5704;SDS011;2877;48.238;11.160;2023-04-05T04:45:38;6.20;;;5.27;;
5704;SDS011;2877;48.238;11.160;2023-04-05T04:48:04;6.40;;;4.47;;
5704;SDS011;2877;48.238;11.160;2023-04-05T04:50:30;6.50;;;4.80;;
5704;SDS011;2877;48.238;11.160;2023-04-05T04:52:59;7.80;;;5.07;;
5704;SDS011;2877;48.238;11.160;2023-04-05T04:55:26;5.37;;;4.53;;
5704;SDS011;2877;48.238;11.160;2023-04-05T04:57:52;6.50;;;4.73;;
5704;SDS011;2877;48.238;11.160;2023-04-05T05:00:19;5.53;;;4.33;;
5704;SDS011;2877;48.238;11.160;2023-04-05T05:02:45;7.53;;;4.73;;
5704;SDS011;2877;48.238;11.160;2023-04-05T05:05:11;8.53;;;5.37;;
5704;SDS011;2877;48.238;11.160;2023-04-05T05:07:38;8.03;;;5.17;;
5704;SDS011;2877;48.238;11.160;2023-04-05T05:10:09;5.60;;;4.73;;
5704;SDS011;2877;48.238;11.160;2023-04-05T05:12:36;5.90;;;4.80;;
5704;SDS011;2877;48.238;11.160;2023-04-05T05:15:02;6.50;;;5.23;;
5704;SDS011;2877;48.238;11.160;2023-04-05T05:17:28;11.43;;;6.10;;
5704;SDS011;2877;48.238;11.160;2023-04-05T05:19:56;8.07;;;4.97;;
5704;SDS011;2877;48.238;11.160;2023-04-05T05:22:24;16.10;;;5.67;;
5704;SDS011;2877;48.238;11.160;2023-04-05T05:24:50;7.07;;;5.00;;
5704;SDS011;2877;48.238;11.160;2023-04-05T05:27:16;6.10;;;4.93;;
5704;SDS011;2877;48.238;11.160;2023-04-05T05:29:42;8.10;;;5.20;;
5704;SDS011;2877;48.238;11.160;2023-04-05T05:32:07;9.77;;;5.50;;
5704;SDS011;2877;48.238;11.160;2023-04-05T05:34:33;7.97;;;4.80;;
5704;SDS011;2877;48.238;11.160;2023-04-05T05:36:59;28.43;;;5.90;;
5704;SDS011;2877;48.238;11.160;2023-04-05T05:39:25;13.83;;;5.60;;
5704;SDS011;2877;48.238;11.160;2023-04-05T05:41:51;6.63;;;4.93;;
5704;SDS011;2877;48.238;11.160;2023-04-05T05:44:16;13.63;;;5.30;;
5704;SDS011;2877;48.238;11.160;2023-04-05T05:46:42;5.73;;;4.67;;
5704;SDS011;2877;48.238;11.160;2023-04-05T05:49:07;9.87;;;5.13;;
5704;SDS011;2877;48.238;11.160;2023-04-05T05:51:33;8.97;;;5.33;;
5704;SDS011;2877;48.238;11.160;2023-04-05T05:54:00;5.87;;;5.10;;
5704;SDS011;2877;48.238;11.160;2023-04-05T05:56:25;12.17;;;6.00;;
5704;SDS011;2877;48.238;11.160;2023-04-05T05:58:51;8.73;;;4.93;;
5704;SDS011;2877;48.238;11.160;2023-04-05T06:01:17;10.03;;;5.40;;
5704;SDS011;2877;48.238;11.160;2023-04-05T06:03:46;6.43;;;5.70;;
5704;SDS011;2877;48.238;11.160;2023-04-05T06:06:12;8.60;;;5.43;;
5704;SDS011;2877;48.238;11.160;2023-04-05T06:08:38;6.30;;;5.10;;
5704;SDS011;2877;48.238;11.160;2023-04-05T06:11:03;7.20;;;5.60;;
5704;SDS011;2877;48.238;11.160;2023-04-05T06:13:29;9.27;;;5.60;;
5704;SDS011;2877;48.238;11.160;2023-04-05T06:15:55;6.23;;;5.00;;
5704;SDS011;2877;48.238;11.160;2023-04-05T06:18:20;7.70;;;5.57;;
5704;SDS011;2877;48.238;11.160;2023-04-05T06:20:46;6.33;;;5.23;;
5704;SDS011;2877;48.238;11.160;2023-04-05T06:23:12;7.70;;;5.97;;
5704;SDS011;2877;48.238;11.160;2023-04-05T06:25:38;9.40;;;5.77;;
5704;SDS011;2877;48.238;11.160;2023-04-05T06:28:04;6.30;;;5.23;;
5704;SDS011;2877;48.238;11.160;2023-04-05T06:30:31;6.30;;;5.00;;
5704;SDS011;2877;48.238;11.160;2023-04-05T06:32:57;7.33;;;5.30;;
5704;SDS011;2877;48.238;11.160;2023-04-05T06:35:24;6.80;;;5.47;;
5704;SDS011;2877;48.238;11.160;2023-04-05T06:37:50;5.70;;;4.53;;
5704;SDS011;2877;48.238;11.160;2023-04-05T06:40:15;6.73;;;5.30;;
5704;SDS011;2877;48.238;11.160;2023-04-05T06:42:42;5.90;;;4.80;;
5704;SDS011;2877;48.238;11.160;2023-04-05T06:45:08;7.77;;;5.10;;
5704;SDS011;2877;48.238;11.160;2023-04-05T06:47:34;8.40;;;5.20;;
5704;SDS011;2877;48.238;11.160;2023-04-05T06:50:02;6.47;;;5.00;;
5704;SDS011;2877;48.238;11.160;2023-04-05T06:52:28;5.17;;;4.67;;
5704;SDS011;2877;48.238;11.160;2023-04-05T06:54:54;5.63;;;4.80;;
5704;SDS011;2877;48.238;11.160;2023-04-05T06:57:20;7.30;;;4.70;;
5704;SDS011;2877;48.238;11.160;2023-04-05T06:59:46;8.40;;;5.20;;
5704;SDS011;2877;48.238;11.160;2023-04-05T07:02:11;5.80;;;5.00;;
5704;SDS011;2877;48.238;11.160;2023-04-05T07:04:37;5.90;;;4.57;;
5704;SDS011;2877;48.238;11.160;2023-04-05T07:07:03;4.83;;;4.27;;
5704;SDS011;2877;48.238;11.160;2023-04-05T07:09:33;9.70;;;4.90;;
5704;SDS011;2877;48.238;11.160;2023-04-05T07:11:59;5.43;;;4.53;;
5704;SDS011;2877;48.238;11.160;2023-04-05T07:14:30;6.87;;;4.67;;
5704;SDS011;2877;48.238;11.160;2023-04-05T07:16:59;6.43;;;4.30;;
5704;SDS011;2877;48.238;11.160;2023-04-05T07:19:25;6.70;;;4.77;;
5704;SDS011;2877;48.238;11.160;2023-04-05T07:21:51;4.90;;;4.40;;
5704;SDS011;2877;48.238;11.160;2023-04-05T07:24:17;8.40;;;5.00;;
5704;SDS011;2877;48.238;11.160;2023-04-05T07:26:43;8.40;;;5.20;;
5704;SDS011;2877;48.238;11.160;2023-04-05T07:29:09;5.50;;;4.73;;
5704;SDS011;2877;48.238;11.160;2023-04-05T07:31:35;5.30;;;4.80;;
5704;SDS011;2877;48.238;11.160;2023-04-05T07:34:02;8.23;;;4.73;;
5704;SDS011;2877;48.238;11.160;2023-04-05T07:36:27;7.70;;;5.40;;
5704;SDS011;2877;48.238;11.160;2023-04-05T07:38:54;5.93;;;5.20;;
5704;SDS011;2877;48.238;11.160;2023-04-05T07:41:21;6.50;;;5.40;;
5704;SDS011;2877;48.238;11.160;2023-04-05T07:43:48;7.13;;;5.00;;
5704;SDS011;2877;48.238;11.160;2023-04-05T07:46:14;7.90;;;5.33;;
5704;SDS011;2877;48.238;11.160;2023-04-05T07:48:39;6.87;;;4.60;;
5704;SDS011;2877;48.238;11.160;2023-04-05T07:51:05;6.53;;;5.37;;
5704;SDS011;2877;48.238;11.160;2023-04-05T07:53:32;6.80;;;5.37;;
5704;SDS011;2877;48.238;11.160;2023-04-05T07:56:01;6.70;;;4.77;;
5704;SDS011;2877;48.238;11.160;2023-04-05T07:58:40;6.40;;;5.00;;
5704;SDS011;2877;48.238;11.160;2023-04-05T08:01:06;5.17;;;4.43;;
5704;SDS011;2877;48.238;11.160;2023-04-05T08:03:34;5.30;;;4.67;;
5704;SDS011;2877;48.238;11.160;2023-04-05T08:08:40;8.80;;;5.40;;
5704;SDS011;2877;48.238;11.160;2023-04-05T08:11:05;6.20;;;5.00;;
5704;SDS011;2877;48.238;11.160;2023-04-05T08:13:31;6.17;;;4.70;;
5704;SDS011;2877;48.238;11.160;2023-04-05T08:15:58;8.13;;;4.70;;
5704;SDS011;2877;48.238;11.160;2023-04-05T08:18:24;8.33;;;4.80;;
5704;SDS011;2877;48.238;11.160;2023-04-05T08:20:51;6.23;;;4.30;;
5704;SDS011;2877;48.238;11.160;2023-04-05T08:23:18;5.70;;;4.57;;
5704;SDS011;2877;48.238;11.160;2023-04-05T08:25:43;6.07;;;4.10;;
5704;SDS011;2877;48.238;11.160;2023-04-05T08:28:09;6.30;;;4.60;;
5704;SDS011;2877;48.238;11.160;2023-04-05T08:30:35;7.83;;;4.50;;
5704;SDS011;2877;48.238;11.160;2023-04-05T08:33:01;8.43;;;4.90;;
5704;SDS011;2877;48.238;11.160;2023-04-05T08:35:26;6.10;;;4.20;;
5704;SDS011;2877;48.238;11.160;2023-04-05T08:37:52;5.50;;;4.10;;
5704;SDS011;2877;48.238;11.160;2023-04-05T08:40:17;6.23;;;4.30;;
5704;SDS011;2877;48.238;11.160;2023-04-05T08:42:51;8.20;;;4.37;;
5704;SDS011;2877;48.238;11.160;2023-04-05T08:45:19;6.50;;;4.80;;
5704;SDS011;2877;48.238;11.160;2023-04-05T08:47:46;5.00;;;4.40;;
5704;SDS011;2877;48.238;11.160;2023-04-05T08:50:16;6.13;;;4.00;;
5704;SDS011;2877;48.238;11.160;2023-04-05T08:52:41;5.43;;;4.40;;
5704;SDS011;2877;48.238;11.160;2023-04-05T08:55:13;7.43;;;4.53;;
5704;SDS011;2877;48.238;11.160;2023-04-05T08:57:39;4.97;;;4.30;;
5704;SDS011;2877;48.238;11.160;2023-04-05T09:00:07;5.03;;;3.70;;
5704;SDS011;2877;48.238;11.160;2023-04-05T09:02:33;5.87;;;4.07;;
5704;SDS011;2877;48.238;11.160;2023-04-05T09:05:00;4.83;;;4.03;;
5704;SDS011;2877;48.238;11.160;2023-04-05T09:07:26;4.70;;;3.60;;
5704;SDS011;2877;48.238;11.160;2023-04-05T09:09:54;4.27;;;3.40;;
5704;SDS011;2877;48.238;11.160;2023-04-05T09:12:23;3.97;;;3.57;;
5704;SDS011;2877;48.238;11.160;2023-04-05T09:14:50;4.13;;;3.73;;
5704;SDS011;2877;48.238;11.160;2023-04-05T09:17:16;5.73;;;4.27;;
5704;SDS011;2877;48.238;11.160;2023-04-05T09:19:43;5.77;;;4.00;;
5704;SDS011;2877;48.238;11.160;2023-04-05T09:22:09;6.93;;;3.30;;
5704;SDS011;2877;48.238;11.160;2023-04-05T09:24:39;4.37;;;3.33;;
5704;SDS011;2877;48.238;11.160;2023-04-05T09:29:36;4.33;;;3.20;;
5704;SDS011;2877;48.238;11.160;2023-04-05T09:32:03;8.93;;;3.50;;
5704;SDS011;2877;48.238;11.160;2023-04-05T09:34:30;4.60;;;3.90;;
5704;SDS011;2877;48.238;11.160;2023-04-05T09:36:57;6.30;;;3.70;;
5704;SDS011;2877;48.238;11.160;2023-04-05T09:39:30;5.70;;;3.10;;
5704;SDS011;2877;48.238;11.160;2023-04-05T09:42:03;3.20;;;2.90;;
5704;SDS011;2877;48.238;11.160;2023-04-05T09:47:16;5.73;;;3.80;;
5704;SDS011;2877;48.238;11.160;2023-04-05T09:49:43;4.60;;;3.70;;
5704;SDS011;2877;48.238;11.160;2023-04-05T09:52:19;4.67;;;3.30;;
5704;SDS011;2877;48.238;11.160;2023-04-05T09:54:50;4.37;;;3.57;;
5704;SDS011;2877;48.238;11.160;2023-04-05T09:57:18;5.70;;;3.57;;
5704;SDS011;2877;48.238;11.160;2023-04-05T09:59:44;3.97;;;3.57;;
5704;SDS011;2877;48.238;11.160;2023-04-05T10:02:10;4.07;;;3.10;;
5704;SDS011;2877;48.238;11.160;2023-04-05T10:04:43;7.17;;;3.07;;
5704;SDS011;2877;48.238;11.160;2023-04-05T10:07:10;3.27;;;3.00;;
5704;SDS011;2877;48.238;11.160;2023-04-05T10:09:40;3.50;;;3.20;;
5704;SDS011;2877;48.238;11.160;2023-04-05T10:12:07;6.03;;;3.40;;
5704;SDS011;2877;48.238;11.160;2023-04-05T10:14:34;3.63;;;3.30;;
5704;SDS011;2877;48.238;11.160;2023-04-05T10:17:20;3.23;;;2.93;;
5704;SDS011;2877;48.238;11.160;2023-04-05T10:22:22;4.20;;;3.80;;
5704;SDS011;2877;48.238;11.160;2023-04-05T10:24:54;5.27;;;3.73;;
5704;SDS011;2877;48.238;11.160;2023-04-05T10:27:28;3.53;;;3.23;;
5704;SDS011;2877;48.238;11.160;2023-04-05T10:30:05;6.37;;;3.30;;
5704;SDS011;2877;48.238;11.160;2023-04-05T10:35:30;4.83;;;3.50;;
5704;SDS011;2877;48.238;11.160;2023-04-05T10:40:47;5.40;;;3.53;;
5704;SDS011;2877;48.238;11.160;2023-04-05T10:43:18;4.63;;;3.83;;
5704;SDS011;2877;48.238;11.160;2023-04-05T10:45:47;3.77;;;3.47;;
5704;SDS011;2877;48.238;11.160;2023-04-05T10:51:10;5.30;;;3.40;;
5704;SDS011;2877;48.238;11.160;2023-04-05T10:53:37;5.53;;;3.63;;
5704;SDS011;2877;48.238;11.160;2023-04-05T10:56:03;4.20;;;3.73;;
5704;SDS011;2877;48.238;11.160;2023-04-05T10:58:29;3.53;;;3.00;;
5704;SDS011;2877;48.238;11.160;2023-04-05T11:00:55;7.47;;;3.60;;
5704;SDS011;2877;48.238;11.160;2023-04-05T11:03:40;4.93;;;3.37;;
5704;SDS011;2877;48.238;11.160;2023-04-05T11:06:29;6.40;;;3.37;;
5704;SDS011;2877;48.238;11.160;2023-04-05T11:09:16;3.63;;;3.20;;
5704;SDS011;2877;48.238;11.160;2023-04-05T11:11:43;3.50;;;3.20;;
5704;SDS011;2877;48.238;11.160;2023-04-05T11:14:23;4.37;;;3.50;;
5704;SDS011;2877;48.238;11.160;2023-04-05T11:16:58;3.73;;;3.33;;
5704;SDS011;2877;48.238;11.160;2023-04-05T11:22:10;5.90;;;3.10;;
5704;SDS011;2877;48.238;11.160;2023-04-05T11:27:25;4.30;;;3.40;;
5704;SDS011;2877;48.238;11.160;2023-04-05T11:29:58;6.67;;;3.97;;
5704;SDS011;2877;48.238;11.160;2023-04-05T11:32:41;6.03;;;3.70;;
5704;SDS011;2877;48.238;11.160;2023-04-05T11:35:11;5.07;;;3.73;;
5704;SDS011;2877;48.238;11.160;2023-04-05T11:37:51;3.90;;;3.57;;
5704;SDS011;2877;48.238;11.160;2023-04-05T11:40:33;6.90;;;3.70;;
5704;SDS011;2877;48.238;11.160;2023-04-05T11:43:03;9.70;;;3.67;;
5704;SDS011;2877;48.238;11.160;2023-04-05T11:45:35;4.30;;;3.90;;
5704;SDS011;2877;48.238;11.160;2023-04-05T11:50:32;4.13;;;3.60;;
5704;SDS011;2877;48.238;11.160;2023-04-05T11:55:37;4.20;;;3.80;;
5704;SDS011;2877;48.238;11.160;2023-04-05T11:58:10;4.23;;;3.83;;
5704;SDS011;2877;48.238;11.160;2023-04-05T12:00:44;4.17;;;3.47;;
5704;SDS011;2877;48.238;11.160;2023-04-05T12:03:10;5.53;;;3.60;;
5704;SDS011;2877;48.238;11.160;2023-04-05T12:05:43;4.10;;;3.70;;
5704;SDS011;2877;48.238;11.160;2023-04-05T12:08:10;3.93;;;3.50;;
5704;SDS011;2877;48.238;11.160;2023-04-05T12:10:35;10.03;;;3.77;;
5704;SDS011;2877;48.238;11.160;2023-04-05T12:13:01;4.97;;;4.00;;
5704;SDS011;2877;48.238;11.160;2023-04-05T12:15:26;4.63;;;3.53;;
5704;SDS011;2877;48.238;11.160;2023-04-05T12:17:52;3.70;;;3.40;;
5704;SDS011;2877;48.238;11.160;2023-04-05T12:20:19;4.63;;;3.70;;
5704;SDS011;2877;48.238;11.160;2023-04-05T12:22:48;5.40;;;3.77;;
5704;SDS011;2877;48.238;11.160;2023-04-05T12:25:16;8.30;;;4.17;;
5704;SDS011;2877;48.238;11.160;2023-04-05T12:27:42;9.80;;;4.47;;
5704;SDS011;2877;48.238;11.160;2023-04-05T12:32:45;4.87;;;4.40;;
5704;SDS011;2877;48.238;11.160;2023-04-05T12:35:15;5.27;;;4.13;;
5704;SDS011;2877;48.238;11.160;2023-04-05T12:37:44;6.20;;;4.50;;
5704;SDS011;2877;48.238;11.160;2023-04-05T12:40:11;4.47;;;4.07;;
5704;SDS011;2877;48.238;11.160;2023-04-05T12:42:38;8.33;;;4.00;;
5704;SDS011;2877;48.238;11.160;2023-04-05T12:47:31;7.33;;;4.50;;
5704;SDS011;2877;48.238;11.160;2023-04-05T12:50:08;5.50;;;3.80;;
5704;SDS011;2877;48.238;11.160;2023-04-05T12:52:35;4.23;;;3.27;;
5704;SDS011;2877;48.238;11.160;2023-04-05T12:55:01;4.23;;;3.63;;
5704;SDS011;2877;48.238;11.160;2023-04-05T12:57:32;4.70;;;3.97;;
5704;SDS011;2877;48.238;11.160;2023-04-05T12:59:58;4.53;;;3.80;;
5704;SDS011;2877;48.238;11.160;2023-04-05T13:02:24;5.20;;;4.07;;
5704;SDS011;2877;48.238;11.160;2023-04-05T13:04:51;6.30;;;4.10;;
5704;SDS011;2877;48.238;11.160;2023-04-05T13:07:16;6.53;;;4.13;;
5704;SDS011;2877;48.238;11.160;2023-04-05T13:09:42;5.57;;;4.50;;
5704;SDS011;2877;48.238;11.160;2023-04-05T13:12:07;6.97;;;5.00;;
5704;SDS011;2877;48.238;11.160;2023-04-05T13:14:33;5.20;;;4.40;;
5704;SDS011;2877;48.238;11.160;2023-04-05T13:16:58;4.27;;;3.90;;
5704;SDS011;2877;48.238;11.160;2023-04-05T13:19:24;4.73;;;4.23;;
5704;SDS011;2877;48.238;11.160;2023-04-05T13:21:49;5.30;;;4.80;;
5704;SDS011;2877;48.238;11.160;2023-04-05T13:24:15;4.20;;;3.80;;
5704;SDS011;2877;48.238;11.160;2023-04-05T13:26:40;5.43;;;4.33;;
5704;SDS011;2877;48.238;11.160;2023-04-05T13:29:06;4.63;;;4.27;;
5704;SDS011;2877;48.238;11.160;2023-04-05T13:31:32;8.00;;;4.30;;
5704;SDS011;2877;48.238;11.160;2023-04-05T13:33:58;4.40;;;4.00;;
5704;SDS011;2877;48.238;11.160;2023-04-05T13:36:23;5.17;;;3.63;;
5704;SDS011;2877;48.238;11.160;2023-04-05T13:38:50;7.37;;;5.00;;
5704;SDS011;2877;48.238;11.160;2023-04-05T13:41:15;5.27;;;4.53;;
5704;SDS011;2877;48.238;11.160;2023-04-05T13:43:41;6.87;;;4.70;;
5704;SDS011;2877;48.238;11.160;2023-04-05T13:46:06;4.77;;;4.20;;
5704;SDS011;2877;48.238;11.160;2023-04-05T13:48:32;8.17;;;4.77;;
5704;SDS011;2877;48.238;11.160;2023-04-05T13:50:57;5.47;;;4.43;;
5704;SDS011;2877;48.238;11.160;2023-04-05T13:53:23;4.70;;;4.20;;
5704;SDS011;2877;48.238;11.160;2023-04-05T13:55:49;4.83;;;4.37;;
5704;SDS011;2877;48.238;11.160;2023-04-05T13:58:14;5.73;;;4.20;;
5704;SDS011;2877;48.238;11.160;2023-04-05T14:00:40;4.87;;;4.07;;
5704;SDS011;2877;48.238;11.160;2023-04-05T14:03:06;4.50;;;4.10;;
5704;SDS011;2877;48.238;11.160;2023-04-05T14:05:31;4.70;;;4.30;;
5704;SDS011;2877;48.238;11.160;2023-04-05T14:07:57;5.40;;;4.30;;
5704;SDS011;2877;48.238;11.160;2023-04-05T14:10:22;4.67;;;4.00;;
5704;SDS011;2877;48.238;11.160;2023-04-05T14:12:48;9.47;;;4.00;;
5704;SDS011;2877;48.238;11.160;2023-04-05T14:15:13;5.50;;;4.10;;
5704;SDS011;2877;48.238;11.160;2023-04-05T14:17:39;4.00;;;3.70;;
5704;SDS011;2877;48.238;11.160;2023-04-05T14:20:05;5.77;;;4.53;;
5704;SDS011;2877;48.238;11.160;2023-04-05T14:22:32;6.40;;;4.00;;
5704;SDS011;2877;48.238;11.160;2023-04-05T14:24:57;5.10;;;4.53;;
5704;SDS011;2877;48.238;11.160;2023-04-05T14:27:23;5.50;;;4.13;;
5704;SDS011;2877;48.238;11.160;2023-04-05T14:29:51;7.87;;;4.40;;
5704;SDS011;2877;48.238;11.160;2023-04-05T14:32:20;6.73;;;4.30;;
5704;SDS011;2877;48.238;11.160;2023-04-05T14:34:47;4.20;;;3.90;;
5704;SDS011;2877;48.238;11.160;2023-04-05T14:37:12;4.13;;;3.77;;
5704;SDS011;2877;48.238;11.160;2023-04-05T14:39:38;4.73;;;4.23;;
5704;SDS011;2877;48.238;11.160;2023-04-05T14:42:03;5.37;;;4.70;;
5704;SDS011;2877;48.238;11.160;2023-04-05T14:44:29;4.67;;;3.87;;
5704;SDS011;2877;48.238;11.160;2023-04-05T14:46:54;4.40;;;3.80;;
5704;SDS011;2877;48.238;11.160;2023-04-05T14:49:20;3.93;;;3.53;;
5704;SDS011;2877;48.238;11.160;2023-04-05T14:51:46;4.87;;;4.37;;
5704;SDS011;2877;48.238;11.160;2023-04-05T14:54:11;4.67;;;4.13;;
5704;SDS011;2877;48.238;11.160;2023-04-05T14:56:37;4.80;;;4.40;;
5704;SDS011;2877;48.238;11.160;2023-04-05T14:59:02;4.07;;;3.60;;
5704;SDS011;2877;48.238;11.160;2023-04-05T15:01:28;3.70;;;3.40;;
5704;SDS011;2877;48.238;11.160;2023-04-05T15:03:54;4.23;;;3.70;;
5704;SDS011;2877;48.238;11.160;2023-04-05T15:06:19;4.00;;;3.60;;
5704;SDS011;2877;48.238;11.160;2023-04-05T15:08:45;5.00;;;4.00;;
5704;SDS011;2877;48.238;11.160;2023-04-05T15:11:10;4.77;;;3.90;;
5704;SDS011;2877;48.238;11.160;2023-04-05T15:13:36;7.93;;;3.80;;
5704;SDS011;2877;48.238;11.160;2023-04-05T15:16:02;4.27;;;3.87;;
5704;SDS011;2877;48.238;11.160;2023-04-05T15:18:28;4.80;;;3.93;;
5704;SDS011;2877;48.238;11.160;2023-04-05T15:20:54;6.00;;;3.90;;
5704;SDS011;2877;48.238;11.160;2023-04-05T15:23:19;4.70;;;4.20;;
5704;SDS011;2877;48.238;11.160;2023-04-05T15:25:45;4.67;;;4.20;;
5704;SDS011;2877;48.238;11.160;2023-04-05T15:28:10;4.37;;;3.60;;
5704;SDS011;2877;48.238;11.160;2023-04-05T15:30:36;4.00;;;3.70;;
5704;SDS011;2877;48.238;11.160;2023-04-05T15:33:02;4.33;;;3.90;;
5704;SDS011;2877;48.238;11.160;2023-04-05T15:35:27;4.60;;;4.03;;
5704;SDS011;2877;48.238;11.160;2023-04-05T15:37:53;5.67;;;3.50;;
5704;SDS011;2877;48.238;11.160;2023-04-05T15:40:18;4.87;;;3.70;;
5704;SDS011;2877;48.238;11.160;2023-04-05T15:42:44;4.07;;;3.53;;
5704;SDS011;2877;48.238;11.160;2023-04-05T15:45:10;4.10;;;3.70;;
5704;SDS011;2877;48.238;11.160;2023-04-05T15:47:36;4.30;;;3.90;;